Time;durP1;ratioP1;P1;durP2;ratioP2;P2;SDS_P1;SDS_P2;PMS_P1;PMS_P2;Temp;Humidity;BMP_temperature;BMP_pressure;BME280_temperature;BME280_humidity;BME280_pressure;Samples;Min_cycle;Max_cycle;Signal;HPM_P1;HPM_P2
2022/09/18 00:00:49;;;;;;;48.87;10.67;;;;;;;20.94;92.05;98136.16;5052406;28;20192;-62
2022/09/18 00:03:17;;;;;;;13.67;8.00;;;;;;;20.84;94.07;98122.78;5052579;28;20580;-62
2022/09/18 00:05:44;;;;;;;31.83;9.70;;;;;;;20.69;94.43;98121.13;5051964;28;20953;-62
2022/09/18 00:08:11;;;;;;;11.43;9.20;;;;;;;20.76;97.34;98120.75;5052287;28;20196;-63
2022/09/18 00:10:41;;;;;;;7.47;6.80;;;;;;;21.01;96.92;98123.03;5051801;28;20307;-63
2022/09/18 00:13:08;;;;;;;10.30;9.03;;;;;;;21.17;94.55;98109.00;5052879;28;20197;-62
2022/09/18 00:15:35;;;;;;;25.23;9.23;;;;;;;21.39;93.23;98136.13;5051671;28;20258;-63
2022/09/18 00:18:02;;;;;;;19.30;7.53;;;;;;;21.52;93.30;98132.63;5051221;28;20285;-62
2022/09/18 00:20:32;;;;;;;16.00;8.17;;;;;;;21.47;91.00;98132.75;5061853;28;20253;-64
2022/09/18 00:22:59;;;;;;;6.73;6.03;;;;;;;21.45;90.52;98132.25;5072670;28;20184;-62
2022/09/18 00:25:26;;;;;;;16.13;5.53;;;;;;;21.32;90.06;98130.34;5072112;28;20269;-62
2022/09/18 00:27:53;;;;;;;6.47;5.40;;;;;;;21.23;89.90;98124.00;5071890;28;20655;-62
2022/09/18 00:30:19;;;;;;;15.90;6.13;;;;;;;21.17;90.04;98111.69;5071955;28;20200;-62
2022/09/18 00:32:46;;;;;;;7.43;5.07;;;;;;;21.12;94.61;98113.69;5071741;28;20237;-63
2022/09/18 00:35:13;;;;;;;4.97;4.47;;;;;;;21.29;93.57;98111.22;5072118;28;20252;-62
2022/09/18 00:37:41;;;;;;;4.20;3.90;;;;;;;21.46;92.79;98106.00;5071900;28;20274;-62
2022/09/18 00:40:09;;;;;;;7.53;5.30;;;;;;;21.60;89.55;98110.31;5071803;28;20199;-63
2022/09/18 00:42:36;;;;;;;7.07;4.90;;;;;;;21.54;88.42;98127.75;5071598;28;20241;-62
2022/09/18 00:45:03;;;;;;;10.30;4.60;;;;;;;21.43;88.65;98123.63;5071777;28;20250;-63
2022/09/18 00:47:32;;;;;;;6.53;5.40;;;;;;;21.26;89.10;98142.31;5071660;28;20203;-63
2022/09/18 00:50:09;;;;;;;5.40;4.93;;;;;;;21.14;89.98;98133.88;5071699;28;20230;-63
2022/09/18 00:52:47;;;;;;;16.53;5.17;;;;;;;21.03;90.26;98131.66;5071778;28;20265;-63
2022/09/18 00:55:15;;;;;;;6.73;4.60;;;;;;;20.92;91.04;98136.44;5071758;28;20192;-63
2022/09/18 00:57:46;;;;;;;5.70;5.20;;;;;;;20.77;91.71;98138.53;5072526;28;20250;-62
2022/09/18 01:00:13;;;;;;;16.83;5.80;;;;;;;20.41;93.14;98136.38;5072245;28;20192;-62
2022/09/18 01:02:42;;;;;;;11.40;5.57;;;;;;;20.16;95.08;98138.63;5071062;28;20231;-62
2022/09/18 01:05:10;;;;;;;9.63;5.10;;;;;;;20.19;96.66;98132.66;5071891;28;20188;-62
2022/09/18 01:07:58;;;;;;;7.30;5.30;;;;;;;20.35;99.29;98136.75;5071538;28;20203;-62
2022/09/18 01:10:38;;;;;;;10.73;5.93;;;;;;;20.56;95.80;98151.53;5071506;28;20223;-64
2022/09/18 01:13:12;;;;;;;9.10;6.00;;;;;;;20.55;94.84;98145.34;5072020;28;20571;-62
2022/09/18 01:15:47;;;;;;;17.80;6.77;;;;;;;20.32;95.78;98150.81;5071835;28;20200;-63
2022/09/18 01:18:21;;;;;;;21.87;6.80;;;;;;;20.19;100.00;98140.75;5071544;28;20203;-62
2022/09/18 01:21:09;;;;;;;8.20;6.50;;;;;;;20.48;99.19;98141.41;5058509;28;20187;-62
2022/09/18 01:24:13;;;;;;;21.37;8.23;;;;;;;20.37;95.96;98150.72;5051522;28;20243;-62
2022/09/18 01:26:54;;;;;;;17.57;9.03;;;;;;;20.11;97.45;98139.50;5051426;28;20192;-62
2022/09/18 01:29:29;;;;;;;23.23;9.20;;;;;;;19.98;98.96;98145.56;5054699;28;20188;-62
2022/09/18 01:32:02;;;;;;;14.40;9.10;;;;;;;19.50;100.00;98129.72;5054963;28;20745;-62
2022/09/18 01:34:34;;;;;;;10.93;9.70;;;;;;;19.40;100.00;98136.00;5055439;28;20187;-62
2022/09/18 01:37:08;;;;;;;13.07;11.50;;;;;;;19.16;100.00;98129.75;5055044;28;20258;-63
2022/09/18 01:39:42;;;;;;;12.00;10.50;;;;;;;19.21;100.00;98131.59;5055366;28;20252;-62
2022/09/18 01:42:12;;;;;;;15.13;13.40;;;;;;;19.29;100.00;98133.72;5055223;28;20193;-62
2022/09/18 01:44:44;;;;;;;21.37;14.17;;;;;;;19.23;100.00;98132.13;5054908;28;20193;-64
2022/09/18 01:47:13;;;;;;;24.63;15.70;;;;;;;19.13;100.00;98132.22;5054505;28;20714;-63
2022/09/18 01:49:46;;;;;;;11.53;10.43;;;;;;;19.25;100.00;98144.25;5055994;28;20195;-63
2022/09/18 01:52:20;;;;;;;18.90;13.33;;;;;;;19.55;100.00;98153.91;5054962;28;20187;-62
2022/09/18 01:54:50;;;;;;;17.03;14.83;;;;;;;19.58;100.00;98147.94;5055348;28;20184;-62
2022/09/18 01:57:22;;;;;;;19.87;15.60;;;;;;;19.53;100.00;98154.19;5054934;28;20216;-62
2022/09/18 01:59:57;;;;;;;20.37;15.37;;;;;;;19.46;100.00;98139.44;5054728;28;20249;-62
2022/09/18 02:02:30;;;;;;;17.97;14.57;;;;;;;19.61;100.00;98142.78;5054787;28;20601;-62
2022/09/18 02:05:00;;;;;;;16.47;14.03;;;;;;;19.67;100.00;98141.66;5055511;28;20216;-62
2022/09/18 02:07:35;;;;;;;14.90;13.30;;;;;;;19.91;100.00;98142.44;5054829;28;20280;-63
2022/09/18 02:10:03;;;;;;;18.97;13.83;;;;;;;19.95;100.00;98137.25;5055214;28;20246;-63
2022/09/18 02:12:33;;;;;;;16.13;14.03;;;;;;;20.04;100.00;98135.53;5054594;28;20667;-63
2022/09/18 02:15:05;;;;;;;27.43;13.83;;;;;;;20.12;100.00;98132.22;5054417;28;20667;-62
2022/09/18 02:17:37;;;;;;;14.30;12.80;;;;;;;20.10;100.00;98139.81;5054619;28;20219;-62
2022/09/18 02:20:09;;;;;;;14.43;12.93;;;;;;;20.30;100.00;98139.53;5062120;28;20607;-62
2022/09/18 02:22:38;;;;;;;13.93;12.50;;;;;;;20.54;100.00;98142.94;5074696;28;20267;-62
2022/09/18 02:25:08;;;;;;;17.97;12.70;;;;;;;20.71;99.18;98151.31;5075342;28;20230;-62
2022/09/18 02:27:38;;;;;;;15.63;13.13;;;;;;;20.80;99.19;98154.97;5074986;28;20200;-62
2022/09/18 02:30:09;;;;;;;15.97;12.47;;;;;;;20.83;97.43;98157.06;5074207;28;20249;-62
2022/09/18 02:32:36;;;;;;;13.60;11.70;;;;;;;20.84;96.75;98155.97;5073756;28;20192;-64
2022/09/18 02:35:04;;;;;;;14.37;12.77;;;;;;;20.87;96.14;98157.28;5074265;28;20192;-62
2022/09/18 02:37:41;;;;;;;14.33;12.50;;;;;;;20.80;95.18;98160.34;5073925;28;20220;-62
2022/09/18 02:40:19;;;;;;;16.63;12.70;;;;;;;20.92;97.28;98165.31;5073172;28;20179;-62
2022/09/18 02:42:56;;;;;;;13.40;12.00;;;;;;;20.99;96.06;98171.94;5074300;28;20188;-62
2022/09/18 02:45:30;;;;;;;13.23;11.90;;;;;;;21.20;94.73;98180.50;5073723;28;20685;-62
2022/09/18 02:48:16;;;;;;;11.93;10.67;;;;;;;21.30;94.53;98194.66;5073731;28;20745;-62
2022/09/18 02:50:50;;;;;;;22.17;13.43;;;;;;;21.53;91.94;98204.53;5073749;28;20721;-62
2022/09/18 02:53:23;;;;;;;11.90;10.80;;;;;;;21.65;91.84;98210.25;5074182;28;20266;-62
2022/09/18 02:55:53;;;;;;;14.37;11.57;;;;;;;21.79;90.71;98219.19;5073714;28;20179;-62
2022/09/18 02:58:28;;;;;;;17.20;12.43;;;;;;;21.85;90.18;98223.38;5073833;28;20204;-62
2022/09/18 03:01:01;;;;;;;12.63;11.43;;;;;;;21.98;89.53;98248.84;5074180;28;20286;-62
2022/09/18 03:03:31;;;;;;;19.83;15.10;;;;;;;21.93;88.02;98257.84;5073465;28;20256;-62
2022/09/18 03:05:58;;;;;;;16.53;14.83;;;;;;;21.60;89.87;98267.06;5073264;28;20191;-62
2022/09/18 03:08:25;;;;;;;19.67;15.47;;;;;;;21.18;92.50;98259.13;5073087;28;20683;-63
2022/09/18 03:10:53;;;;;;;17.03;14.90;;;;;;;20.85;94.94;98270.13;5073214;28;20184;-63
2022/09/18 03:13:20;;;;;;;18.03;15.40;;;;;;;20.69;96.51;98266.84;5073526;28;20198;-62
2022/09/18 03:15:47;;;;;;;17.13;14.50;;;;;;;20.48;98.06;98270.91;5073831;28;20204;-62
2022/09/18 03:18:15;;;;;;;22.17;14.83;;;;;;;20.25;100.00;98283.31;5073319;28;20234;-62
2022/09/18 03:20:42;;;;;;;16.00;14.30;;;;;;;19.76;100.00;98290.00;5060861;28;20641;-63
2022/09/18 03:23:09;;;;;;;15.23;13.63;;;;;;;19.56;100.00;98306.38;5053700;28;20188;-62
2022/09/18 03:25:36;;;;;;;18.97;13.37;;;;;;;19.42;100.00;98298.13;5053591;28;20208;-62
2022/09/18 03:28:03;;;;;;;14.90;13.50;;;;;;;19.48;100.00;98312.38;5053661;28;20231;-62
2022/09/18 03:30:30;;;;;;;14.07;12.77;;;;;;;19.02;100.00;98316.41;5053224;28;20206;-62
2022/09/18 03:32:57;;;;;;;14.90;13.30;;;;;;;18.91;100.00;98326.44;5053032;28;20234;-63
2022/09/18 03:35:25;;;;;;;11.23;10.33;;;;;;;18.84;100.00;98325.13;5052844;28;20197;-63
2022/09/18 03:37:53;;;;;;;11.30;10.20;;;;;;;18.94;100.00;98331.25;5053111;28;20293;-63
2022/09/18 03:40:20;;;;;;;12.90;7.00;;;;;;;18.64;100.00;98347.56;5052813;28;20272;-62
2022/09/18 03:42:49;;;;;;;7.57;6.93;;;;;;;18.72;100.00;98354.25;5052944;28;20277;-60
2022/09/18 03:45:16;;;;;;;5.33;4.97;;;;;;;18.50;100.00;98361.88;5052640;28;20581;-60
2022/09/18 03:47:43;;;;;;;5.30;3.93;;;;;;;18.25;100.00;98375.34;5052879;28;20197;-62
2022/09/18 03:50:10;;;;;;;5.37;4.23;;;;;;;18.13;100.00;98378.31;5052561;28;20189;-62
2022/09/18 03:52:39;;;;;;;4.60;4.30;;;;;;;18.12;100.00;98381.28;5052232;28;20725;-62
2022/09/18 03:55:06;;;;;;;4.90;4.60;;;;;;;17.86;100.00;98395.81;5052867;28;20193;-62
2022/09/18 03:57:33;;;;;;;6.67;4.40;;;;;;;17.69;100.00;98411.41;5052266;28;20704;-62
2022/09/18 04:00:00;;;;;;;4.43;4.07;;;;;;;17.49;100.00;98414.88;5052252;28;20243;-62
2022/09/18 04:02:27;;;;;;;5.50;3.10;;;;;;;17.29;100.00;98419.34;5052253;28;20197;-61
2022/09/18 04:04:53;;;;;;;4.37;2.97;;;;;;;17.01;100.00;98425.16;5052643;28;20192;-61
2022/09/18 04:07:20;;;;;;;3.87;2.23;;;;;;;16.74;100.00;98445.97;5052806;28;20561;-61
2022/09/18 04:09:48;;;;;;;2.23;2.13;;;;;;;16.58;100.00;98455.78;5051668;28;20763;-61
2022/09/18 04:12:15;;;;;;;2.97;1.70;;;;;;;16.28;100.00;98465.47;5052087;28;20697;-62
2022/09/18 04:14:42;;;;;;;3.90;1.70;;;;;;;16.17;98.07;98483.34;5052081;28;20192;-62
2022/09/18 04:17:10;;;;;;;4.13;1.87;;;;;;;15.83;95.82;98490.84;5051690;28;20199;-61
2022/09/18 04:19:37;;;;;;;1.87;1.77;;;;;;;15.88;96.22;98506.13;5055044;28;20199;-61
2022/09/18 04:22:04;;;;;;;1.40;1.30;;;;;;;15.84;94.90;98521.91;5072664;28;20266;-62
2022/09/18 04:24:31;;;;;;;2.50;1.37;;;;;;;15.86;93.86;98527.81;5071809;28;20287;-61
2022/09/18 04:26:59;;;;;;;1.67;1.20;;;;;;;15.76;90.76;98541.13;5072229;28;20198;-62
2022/09/18 04:29:25;;;;;;;2.37;1.20;;;;;;;15.78;89.94;98547.03;5072163;28;20192;-61
2022/09/18 04:31:52;;;;;;;2.30;1.23;;;;;;;15.89;86.76;98561.34;5071554;28;20686;-61
2022/09/18 04:34:19;;;;;;;2.33;0.90;;;;;;;16.08;84.13;98572.50;5072058;28;20249;-61
2022/09/18 04:36:45;;;;;;;1.63;1.00;;;;;;;16.30;83.37;98570.56;5071583;28;20196;-61
2022/09/18 04:39:12;;;;;;;0.90;0.90;;;;;;;16.50;81.75;98584.16;5071601;28;20752;-62
2022/09/18 04:41:39;;;;;;;0.60;0.60;;;;;;;16.46;78.79;98585.75;5071966;28;20192;-62
2022/09/18 04:44:07;;;;;;;0.70;0.70;;;;;;;16.84;76.74;98583.63;5071621;28;20620;-62
2022/09/18 04:46:34;;;;;;;0.70;0.70;;;;;;;17.06;75.46;98602.28;5071679;28;20614;-62
2022/09/18 04:49:00;;;;;;;0.77;0.77;;;;;;;17.33;74.49;98605.66;5071459;28;20676;-62
2022/09/18 04:51:27;;;;;;;1.53;0.60;;;;;;;17.45;71.04;98606.28;5071357;28;20192;-61
2022/09/18 04:53:54;;;;;;;3.33;0.50;;;;;;;17.67;70.26;98593.47;5070927;28;20188;-62
2022/09/18 04:56:20;;;;;;;1.90;0.70;;;;;;;17.91;68.62;98632.25;5071781;28;20196;-63
2022/09/18 04:58:47;;;;;;;0.70;0.70;;;;;;;18.09;68.15;98634.47;5071204;28;20599;-62
2022/09/18 05:01:15;;;;;;;1.20;0.50;;;;;;;18.28;66.55;98638.25;5071633;28;20192;-62
2022/09/18 05:03:42;;;;;;;0.70;0.60;;;;;;;18.43;65.67;98651.75;5073245;28;20191;-62
2022/09/18 05:06:09;;;;;;;2.73;0.50;;;;;;;18.73;65.99;98651.78;5075352;28;20815;-62
2022/09/18 05:08:36;;;;;;;1.77;0.90;;;;;;;18.86;65.96;98662.81;5075171;28;20273;-62
2022/09/18 05:11:03;;;;;;;0.50;0.50;;;;;;;19.12;64.14;98671.72;5075624;28;20197;-62
2022/09/18 05:13:30;;;;;;;4.50;1.00;;;;;;;19.34;62.81;98677.63;5074668;28;20196;-63
2022/09/18 05:15:57;;;;;;;1.60;0.70;;;;;;;19.40;62.12;98679.25;5074227;28;20258;-63
2022/09/18 05:18:25;;;;;;;0.90;0.80;;;;;;;19.59;62.50;98677.56;5074619;28;20299;-62
2022/09/18 05:20:53;;;;;;;1.77;0.83;;;;;;;19.51;62.61;98681.63;5061602;28;20247;-62
2022/09/18 05:23:20;;;;;;;0.60;0.60;;;;;;;18.61;65.97;98662.81;5055036;28;20194;-63
2022/09/18 05:25:47;;;;;;;1.60;0.70;;;;;;;18.09;67.89;98674.78;5055047;28;20193;-61
2022/09/18 05:28:14;;;;;;;3.33;0.70;;;;;;;17.55;68.75;98665.38;5055044;28;20634;-63
2022/09/18 05:30:41;;;;;;;1.60;0.83;;;;;;;17.28;69.42;98680.78;5054794;28;20200;-62
2022/09/18 05:33:09;;;;;;;0.73;0.70;;;;;;;16.90;71.51;98663.06;5054562;28;20578;-63
2022/09/18 05:35:38;;;;;;;1.63;0.80;;;;;;;16.72;70.69;98676.03;5054239;28;20249;-62
2022/09/18 05:38:05;;;;;;;4.43;0.90;;;;;;;16.59;72.20;98671.94;5073715;28;20223;-62
2022/09/18 05:40:34;;;;;;;1.83;0.80;;;;;;;16.70;72.15;98678.19;5073493;28;20245;-62
2022/09/18 05:43:01;;;;;;;1.63;0.73;;;;;;;16.88;72.21;98693.88;5073365;28;20249;-62
2022/09/18 05:45:28;;;;;;;0.90;0.90;;;;;;;16.82;69.97;98698.41;5073880;28;20241;-62
2022/09/18 05:47:57;;;;;;;0.50;0.50;;;;;;;16.98;69.73;98691.31;5073653;28;20200;-61
2022/09/18 05:50:26;;;;;;;0.80;0.80;;;;;;;17.04;68.89;98695.63;5073607;28;20199;-61
2022/09/18 05:53:03;;;;;;;1.17;0.83;;;;;;;16.83;68.82;98709.94;5074447;28;20232;-62
2022/09/18 05:55:30;;;;;;;1.27;0.70;;;;;;;16.99;69.28;98711.69;5073966;28;20237;-62
2022/09/18 05:57:57;;;;;;;1.97;0.60;;;;;;;17.03;68.83;98720.84;5074223;28;20227;-62
2022/09/18 06:00:25;;;;;;;1.83;0.67;;;;;;;17.18;66.80;98731.69;5074428;28;20195;-62
2022/09/18 06:02:56;;;;;;;1.63;0.63;;;;;;;17.37;67.26;98724.88;5073217;28;20725;-64
2022/09/18 06:05:23;;;;;;;3.90;0.80;;;;;;;17.65;64.97;98746.84;5074423;28;20545;-62
2022/09/18 06:07:50;;;;;;;2.67;0.60;;;;;;;17.92;64.27;98757.47;5074555;28;20660;-63
2022/09/18 06:10:20;;;;;;;1.47;0.50;;;;;;;18.42;61.94;98763.09;5074794;28;20234;-62
2022/09/18 06:12:46;;;;;;;0.50;0.50;;;;;;;18.97;59.90;98782.06;5074511;28;20613;-62
2022/09/18 06:15:13;;;;;;;0.87;0.63;;;;;;;18.72;58.20;98782.00;5074176;28;20192;-62
2022/09/18 06:17:40;;;;;;;0.57;0.57;;;;;;;18.67;58.98;98776.63;5074083;28;20196;-63
2022/09/18 06:20:09;;;;;;;1.93;0.60;;;;;;;18.63;59.64;98778.22;5073768;28;20602;-64
2022/09/18 06:22:36;;;;;;;1.03;0.60;;;;;;;18.81;57.74;98807.31;5073797;28;20664;-62
2022/09/18 06:25:04;;;;;;;2.90;0.70;;;;;;;19.13;58.02;98807.94;5074529;28;20199;-63
2022/09/18 06:27:33;;;;;;;1.47;0.90;;;;;;;19.37;56.71;98825.22;5072957;28;20201;-64
2022/09/18 06:30:00;;;;;;;3.03;0.80;;;;;;;19.18;56.44;98824.91;5073463;28;20736;-62
2022/09/18 06:32:26;;;;;;;0.70;0.70;;;;;;;19.46;54.98;98835.19;5074212;28;20197;-62
2022/09/18 06:34:53;;;;;;;2.50;0.70;;;;;;;19.68;54.31;98848.38;5073150;28;20241;-62
2022/09/18 06:37:20;;;;;;;0.80;0.80;;;;;;;19.89;53.96;98839.22;5071991;28;20200;-62
2022/09/18 06:39:46;;;;;;;0.77;0.77;;;;;;;20.00;53.18;98836.22;5071905;28;20225;-62
2022/09/18 06:42:13;;;;;;;1.93;0.87;;;;;;;19.68;52.66;98864.53;5071928;28;20188;-63
2022/09/18 06:44:41;;;;;;;1.10;0.80;;;;;;;19.65;51.95;98860.50;5072119;28;20243;-64
2022/09/18 06:47:08;;;;;;;1.07;1.07;;;;;;;19.63;51.96;98861.84;5071650;28;20366;-62
2022/09/18 06:49:35;;;;;;;1.70;0.97;;;;;;;20.09;51.73;98855.38;5071929;28;20265;-62
2022/09/18 06:52:03;;;;;;;0.90;0.90;;;;;;;20.53;50.99;98859.03;5072543;28;20276;-61
2022/09/18 06:54:29;;;;;;;1.00;1.00;;;;;;;20.19;49.84;98871.53;5073299;28;20636;-63
2022/09/18 06:56:56;;;;;;;1.97;0.90;;;;;;;19.63;52.24;98861.84;5073786;28;20326;-61
2022/09/18 06:59:23;;;;;;;1.20;1.10;;;;;;;19.19;54.67;98855.34;5073239;28;20212;-62
2022/09/18 07:01:51;;;;;;;3.43;1.37;;;;;;;18.98;56.65;98859.03;5073749;28;20192;-61
2022/09/18 07:04:18;;;;;;;0.80;0.80;;;;;;;18.78;56.32;98867.06;5073467;28;20202;-62
2022/09/18 07:06:45;;;;;;;2.17;1.00;;;;;;;18.47;58.32;98870.69;5073216;28;20626;-61
2022/09/18 07:09:12;;;;;;;1.03;0.90;;;;;;;18.26;58.95;98871.63;5073267;28;20230;-62
2022/09/18 07:11:39;;;;;;;1.00;0.90;;;;;;;18.67;60.52;98871.59;5073053;28;20261;-61
2022/09/18 07:14:07;;;;;;;4.00;1.20;;;;;;;18.87;57.80;98884.31;5073429;28;20189;-61
2022/09/18 07:16:34;;;;;;;3.90;1.30;;;;;;;18.22;58.82;98883.97;5072939;28;20200;-61
2022/09/18 07:19:02;;;;;;;1.73;1.20;;;;;;;17.76;59.81;98880.16;5073141;28;20223;-61
2022/09/18 07:21:28;;;;;;;1.60;1.50;;;;;;;17.72;60.65;98880.94;5053991;28;20205;-61
2022/09/18 07:23:55;;;;;;;1.73;1.03;;;;;;;17.68;61.36;98864.50;5052607;28;20243;-61
2022/09/18 07:26:22;;;;;;;1.47;1.30;;;;;;;18.38;59.43;98872.28;5052231;28;20200;-63
2022/09/18 07:28:51;;;;;;;1.17;1.07;;;;;;;18.19;59.97;98876.41;5053058;28;20274;-62
2022/09/18 07:31:17;;;;;;;1.00;1.00;;;;;;;18.03;62.08;98867.47;5052509;28;20223;-61
2022/09/18 07:33:44;;;;;;;5.73;0.87;;;;;;;18.23;59.96;98872.97;5053034;28;20258;-62
2022/09/18 07:36:12;;;;;;;3.53;1.03;;;;;;;17.68;61.23;98850.28;5052823;28;20193;-61
2022/09/18 07:38:40;;;;;;;2.20;0.70;;;;;;;17.94;61.95;98863.63;5052463;28;20220;-64
2022/09/18 07:41:06;;;;;;;0.87;0.87;;;;;;;18.10;61.31;98872.59;5052609;28;20196;-62
2022/09/18 07:43:33;;;;;;;1.40;1.30;;;;;;;18.28;61.42;98869.47;5052801;28;20188;-62
2022/09/18 07:46:01;;;;;;;3.43;0.90;;;;;;;18.19;61.21;98882.63;5052602;28;20630;-62
2022/09/18 07:48:28;;;;;;;1.87;1.10;;;;;;;18.15;59.61;98869.94;5052918;28;20205;-62
2022/09/18 07:50:57;;;;;;;1.10;1.10;;;;;;;18.03;60.22;98888.13;5051969;28;20189;-62
2022/09/18 07:53:26;;;;;;;2.47;1.20;;;;;;;18.36;59.29;98895.91;5051841;28;20192;-62
2022/09/18 07:55:54;;;;;;;1.80;1.27;;;;;;;18.13;59.90;98898.97;5052164;28;20188;-62
2022/09/18 07:58:22;;;;;;;2.67;1.27;;;;;;;17.84;60.61;98908.44;5052089;28;20194;-62
2022/09/18 08:00:50;;;;;;;4.47;1.10;;;;;;;17.75;61.41;98918.00;5051270;28;20879;-61
2022/09/18 08:03:17;;;;;;;3.30;1.03;;;;;;;17.59;61.85;98929.69;5051671;28;20197;-61
2022/09/18 08:05:44;;;;;;;4.63;1.00;;;;;;;17.21;61.50;98916.38;5052050;28;20199;-62
2022/09/18 08:08:13;;;;;;;1.63;1.30;;;;;;;17.06;62.35;98924.28;5051888;28;20196;-61
2022/09/18 08:10:43;;;;;;;6.90;1.60;;;;;;;16.68;63.28;98924.34;5051964;28;20192;-61
2022/09/18 08:13:11;;;;;;;1.20;1.10;;;;;;;16.51;62.87;98936.97;5051726;28;20224;-61
2022/09/18 08:15:39;;;;;;;5.93;0.80;;;;;;;16.53;63.11;98934.88;5051474;28;20188;-61
2022/09/18 08:18:07;;;;;;;1.73;1.10;;;;;;;16.22;62.04;98916.69;5051754;28;20258;-62
2022/09/18 08:20:33;;;;;;;2.77;1.00;;;;;;;16.40;62.21;98957.44;5062432;28;20776;-60
2022/09/18 08:23:03;;;;;;;1.37;1.27;;;;;;;16.16;61.15;98939.13;5072037;28;20196;-61
2022/09/18 08:25:30;;;;;;;2.20;1.03;;;;;;;16.22;60.54;98968.44;5070708;28;20192;-62
2022/09/18 08:28:00;;;;;;;2.40;0.80;;;;;;;16.11;62.08;98949.75;5071235;28;20663;-60
2022/09/18 08:30:27;;;;;;;1.00;1.00;;;;;;;16.17;62.20;98940.75;5072303;28;20275;-61
2022/09/18 08:32:58;;;;;;;0.93;0.93;;;;;;;16.10;62.37;98934.75;5071788;28;20195;-61
2022/09/18 08:35:24;;;;;;;1.00;1.00;;;;;;;16.17;62.35;98940.75;5071470;28;20188;-61
2022/09/18 08:37:51;;;;;;;1.00;1.00;;;;;;;16.22;62.36;98928.25;5070940;28;20192;-61
2022/09/18 08:40:22;;;;;;;2.00;1.27;;;;;;;16.25;61.82;98932.28;5070833;28;20314;-62
2022/09/18 08:43:05;;;;;;;2.03;1.20;;;;;;;16.41;61.44;98932.28;5071602;28;20218;-61
2022/09/18 08:45:45;;;;;;;1.90;1.10;;;;;;;16.44;61.11;98936.34;5070886;28;20274;-61
2022/09/18 08:48:16;;;;;;;1.10;1.10;;;;;;;16.99;59.72;98939.75;5071572;28;20411;-61
2022/09/18 08:50:53;;;;;;;3.43;1.60;;;;;;;17.16;56.76;98945.84;5070959;28;20188;-63
2022/09/18 08:53:24;;;;;;;1.07;0.93;;;;;;;17.07;57.35;98947.38;5071475;28;20245;-61
2022/09/18 08:55:53;;;;;;;2.50;1.20;;;;;;;17.03;57.73;98935.50;5071445;28;20651;-61
2022/09/18 08:58:27;;;;;;;3.40;0.80;;;;;;;17.41;58.36;98946.16;5071763;28;20254;-61
2022/09/18 09:00:59;;;;;;;1.63;0.90;;;;;;;17.89;56.71;98959.53;5071587;28;20188;-62
2022/09/18 09:03:33;;;;;;;0.90;0.83;;;;;;;17.75;56.05;98966.34;5071205;28;20184;-62
2022/09/18 09:06:05;;;;;;;1.90;0.80;;;;;;;17.69;55.49;98967.41;5071106;28;20575;-61
2022/09/18 09:08:59;;;;;;;0.83;0.83;;;;;;;17.45;56.30;98972.25;5070787;28;20622;-62
2022/09/18 09:11:35;;;;;;;0.70;0.70;;;;;;;17.47;56.25;98956.69;5071092;28;20199;-61
2022/09/18 09:14:13;;;;;;;3.67;1.20;;;;;;;17.65;56.94;98958.22;5071251;28;20727;-61
2022/09/18 09:16:43;;;;;;;2.33;1.17;;;;;;;17.72;55.02;98956.94;5071261;28;20552;-60
2022/09/18 09:19:26;;;;;;;1.00;1.00;;;;;;;18.11;55.41;98963.75;5070836;28;20302;-60
2022/09/18 09:21:59;;;;;;;1.00;1.00;;;;;;;18.30;52.72;98974.91;5050515;28;20227;-61
2022/09/18 09:24:31;;;;;;;3.13;1.17;;;;;;;18.26;52.17;98965.72;5051021;28;20625;-61
2022/09/18 09:27:02;;;;;;;3.63;0.97;;;;;;;18.45;51.81;98956.19;5051041;28;20246;-60
2022/09/18 09:29:34;;;;;;;3.60;1.00;;;;;;;18.56;52.57;98968.66;5051190;28;20189;-61
2022/09/18 09:32:10;;;;;;;1.30;0.87;;;;;;;18.31;51.75;98976.50;5051201;28;20207;-62
2022/09/18 09:34:43;;;;;;;1.17;0.80;;;;;;;18.56;51.29;98969.47;5051605;28;20192;-63
2022/09/18 09:37:16;;;;;;;1.03;0.80;;;;;;;19.07;49.92;98984.00;5050830;28;20242;-61
2022/09/18 09:39:49;;;;;;;1.80;0.77;;;;;;;19.50;47.88;98983.63;5050904;28;20213;-61
2022/09/18 09:42:21;;;;;;;1.00;1.00;;;;;;;19.46;47.75;98996.00;5050988;28;20271;-61
2022/09/18 09:44:54;;;;;;;0.80;0.80;;;;;;;19.44;48.33;98988.19;5050857;28;20268;-64
2022/09/18 09:47:33;;;;;;;0.90;0.90;;;;;;;19.72;47.53;98997.69;5051105;28;20185;-62
2022/09/18 09:50:11;;;;;;;3.60;0.80;;;;;;;19.57;47.66;98992.28;5053087;28;20216;-62
2022/09/18 09:52:41;;;;;;;1.23;1.00;;;;;;;19.66;46.73;98986.09;5054841;28;20180;-62
2022/09/18 09:55:20;;;;;;;2.47;0.90;;;;;;;19.67;46.28;99009.28;5054746;28;20197;-62
2022/09/18 09:57:55;;;;;;;0.77;0.77;;;;;;;19.70;46.88;98997.97;5054300;28;20261;-63
2022/09/18 10:00:24;;;;;;;1.20;1.10;;;;;;;19.51;47.81;98998.72;5053969;28;20730;-62
2022/09/18 10:03:05;;;;;;;1.83;1.50;;;;;;;19.25;47.33;98999.72;5053786;28;20670;-62
2022/09/18 10:05:39;;;;;;;2.73;2.13;;;;;;;19.15;48.81;98995.06;5054349;28;20188;-62
2022/09/18 10:08:13;;;;;;;1.47;1.00;;;;;;;18.95;48.17;98989.56;5054250;28;20262;-62
2022/09/18 10:10:45;;;;;;;2.20;1.00;;;;;;;19.10;48.03;98983.44;5054171;28;20737;-62
2022/09/18 10:13:16;;;;;;;2.10;0.93;;;;;;;19.09;48.47;98989.91;5053999;28;20185;-61
2022/09/18 10:15:48;;;;;;;7.13;1.27;;;;;;;19.24;48.76;99003.47;5054251;28;20247;-62
2022/09/18 10:18:18;;;;;;;3.83;1.03;;;;;;;19.16;48.72;99006.66;5053734;28;20260;-62
2022/09/18 10:20:48;;;;;;;1.10;1.00;;;;;;;19.26;49.24;98994.06;5066500;28;20203;-61
2022/09/18 10:23:21;;;;;;;8.73;1.17;;;;;;;19.39;48.30;99000.81;5073699;28;20199;-62
2022/09/18 10:25:52;;;;;;;3.40;0.90;;;;;;;19.76;48.06;99013.06;5074412;28;20241;-62
2022/09/18 10:28:20;;;;;;;7.23;0.80;;;;;;;20.11;47.44;99006.94;5074302;28;20180;-62
2022/09/18 10:30:58;;;;;;;1.17;0.97;;;;;;;19.78;46.71;99010.09;5074171;28;20203;-62
2022/09/18 10:33:31;;;;;;;0.90;0.90;;;;;;;19.96;46.85;99006.88;5074292;28;20236;-62
2022/09/18 10:36:03;;;;;;;5.23;0.83;;;;;;;20.21;45.53;99010.44;5073546;28;20188;-62
2022/09/18 10:38:33;;;;;;;1.07;0.90;;;;;;;20.07;45.57;98997.72;5073350;28;20680;-63
2022/09/18 10:41:26;;;;;;;1.30;1.20;;;;;;;20.17;44.49;98973.47;5073036;28;20735;-62
2022/09/18 10:43:56;;;;;;;5.57;1.20;;;;;;;20.63;43.57;99013.63;5073563;28;20180;-62
2022/09/18 10:46:27;;;;;;;1.10;1.10;;;;;;;20.50;43.58;99014.19;5074448;28;20184;-63
2022/09/18 10:48:55;;;;;;;1.13;1.13;;;;;;;20.33;44.63;99020.94;5073598;28;20274;-62
2022/09/18 10:51:24;;;;;;;1.20;1.10;;;;;;;20.28;43.28;99002.91;5073334;28;20198;-62
2022/09/18 10:54:03;;;;;;;2.07;1.10;;;;;;;20.51;42.90;99013.13;5072628;28;20554;-63
2022/09/18 10:56:30;;;;;;;6.70;1.53;;;;;;;20.58;41.83;99020.94;5073223;28;20192;-63
2022/09/18 10:59:13;;;;;;;2.63;1.40;;;;;;;20.58;41.63;99010.13;5072769;28;20203;-62
2022/09/18 11:01:41;;;;;;;2.83;1.20;;;;;;;20.65;41.86;99016.06;5072253;28;20188;-61
2022/09/18 11:04:15;;;;;;;3.20;1.23;;;;;;;20.71;41.69;99004.19;5073100;28;20192;-61
2022/09/18 11:06:46;;;;;;;3.37;1.20;;;;;;;20.71;42.11;99015.00;5072882;28;20617;-61
2022/09/18 11:09:19;;;;;;;3.57;1.30;;;;;;;20.80;42.22;99013.34;5072341;28;20249;-62
2022/09/18 11:11:50;;;;;;;1.00;1.00;;;;;;;21.07;44.87;99003.03;5073133;28;20316;-62
2022/09/18 11:14:20;;;;;;;3.13;1.40;;;;;;;20.90;42.32;99002.50;5072762;28;20224;-62
2022/09/18 11:16:50;;;;;;;1.20;1.20;;;;;;;20.92;41.69;99003.09;5073042;28;20188;-61
2022/09/18 11:19:27;;;;;;;4.93;1.00;;;;;;;20.75;41.91;99016.06;5072065;28;20704;-62
2022/09/18 11:21:55;;;;;;;2.00;1.30;;;;;;;20.82;41.76;99016.56;5052376;28;20233;-64
2022/09/18 11:24:25;;;;;;;1.13;0.97;;;;;;;20.70;42.36;99013.34;5052791;28;20196;-61
2022/09/18 11:26:53;;;;;;;1.07;1.07;;;;;;;20.98;41.86;99010.09;5052592;28;20285;-61
2022/09/18 11:29:25;;;;;;;0.87;0.87;;;;;;;20.41;40.70;99021.22;5052391;28;20265;-64
2022/09/18 11:31:58;;;;;;;4.50;0.97;;;;;;;20.89;41.63;99022.50;5052562;28;20757;-63
2022/09/18 11:34:28;;;;;;;1.37;0.87;;;;;;;20.74;41.95;99019.03;5052561;28;20185;-61
2022/09/18 11:36:58;;;;;;;4.13;1.10;;;;;;;20.70;42.26;99012.56;5052640;28;20261;-62
2022/09/18 11:39:31;;;;;;;2.13;1.07;;;;;;;20.76;42.72;99006.06;5052724;28;20272;-61
2022/09/18 11:41:58;;;;;;;3.03;1.20;;;;;;;20.90;41.83;99013.31;5052349;28;20195;-61